Time;durP1;ratioP1;P1;durP2;ratioP2;P2;SDS_P1;SDS_P2;PMS_P1;PMS_P2;Temp;Humidity;BMP_temperature;BMP_pressure;BME280_temperature;BME280_humidity;BME280_pressure;Samples;Min_cycle;Max_cycle;Signal;HPM_P1;HPM_P2
2021/04/12 00:02:03;;;;;;;8.90;3.27;;;;;;;;;;6229138;23;20167;-88
2021/04/12 00:05:17;;;;;;;5.93;3.67;;;;;;;;;;6209516;22;20167;-88
2021/04/12 00:08:24;;;;;;;7.13;3.13;;;;;;;;;;6210147;22;20187;-89
2021/04/12 00:11:33;;;;;;;6.70;3.13;;;;;;;;;;6211351;23;20191;-87
2021/04/12 00:14:40;;;;;;;7.97;3.50;;;;;;;;;;6212565;23;20226;-91
2021/04/12 00:17:46;;;;;;;6.63;3.10;;;;;;;;;;6210532;23;20168;-88
2021/04/12 00:20:53;;;;;;;9.43;2.77;;;;;;;;;;6210352;23;20175;-88
2021/04/12 00:24:00;;;;;;;7.17;3.07;;;;;;;;;;6211097;22;20170;-90
2021/04/12 00:27:08;;;;;;;5.97;2.90;;;;;;;;;;6210529;23;20613;-90
2021/04/12 00:30:15;;;;;;;7.83;2.50;;;;;;;;;;6209755;23;20220;-90
2021/04/12 00:33:23;;;;;;;4.90;2.60;;;;;;;;;;6209457;23;20209;-88
2021/04/12 00:36:33;;;;;;;6.40;3.00;;;;;;;;;;6209770;23;20240;-89
2021/04/12 00:39:40;;;;;;;8.10;3.00;;;;;;;;;;6211977;23;20171;-89
2021/04/12 00:42:55;;;;;;;4.67;3.10;;;;;;;;;;6210596;23;20499;-90
2021/04/12 00:46:28;;;;;;;4.67;2.50;;;;;;;;;;6211051;23;20171;-90
2021/04/12 00:49:38;;;;;;;6.60;2.60;;;;;;;;;;6210951;23;20554;-90
2021/04/12 00:53:01;;;;;;;5.83;2.83;;;;;;;;;;6210655;23;20310;-87
2021/04/12 00:56:09;;;;;;;5.47;2.93;;;;;;;;;;6209126;23;20215;-88
2021/04/12 00:59:22;;;;;;;7.80;3.03;;;;;;;;;;6208365;23;20199;-86
2021/04/12 01:02:31;;;;;;;9.13;3.07;;;;;;;;;;6209134;22;20643;-91
2021/04/12 01:05:44;;;;;;;10.10;3.47;;;;;;;;;;6210303;23;20512;-92
2021/04/12 01:09:04;;;;;;;4.97;2.50;;;;;;;;;;6227809;22;20175;-89
2021/04/12 01:12:41;;;;;;;7.40;2.90;;;;;;;;;;6193462;22;20191;-90
2021/04/12 01:15:56;;;;;;;8.03;3.40;;;;;;;;;;6210673;22;20167;-92
2021/04/12 01:19:10;;;;;;;6.43;3.10;;;;;;;;;;6211552;23;20167;-90
2021/04/12 01:22:30;;;;;;;10.37;3.10;;;;;;;;;;6210301;23;20167;-90
2021/04/12 01:26:04;;;;;;;5.73;2.87;;;;;;;;;;6210070;22;20151;-89
2021/04/12 01:29:29;;;;;;;5.20;2.73;;;;;;;;;;6209371;23;20191;-90
2021/04/12 01:32:51;;;;;;;6.37;2.73;;;;;;;;;;6208782;23;20210;-91
2021/04/12 01:36:29;;;;;;;4.73;2.90;;;;;;;;;;6229444;22;20152;-90
2021/04/12 01:39:52;;;;;;;7.67;3.10;;;;;;;;;;6211884;23;20171;-90
2021/04/12 01:43:04;;;;;;;8.43;2.97;;;;;;;;;;6211792;23;20251;-91
2021/04/12 01:46:13;;;;;;;6.40;3.00;;;;;;;;;;6211692;22;20167;-89
2021/04/12 01:49:24;;;;;;;7.60;2.80;;;;;;;;;;6211656;23;20195;-88
2021/04/12 01:52:47;;;;;;;7.27;3.27;;;;;;;;;;6212508;23;20180;-90
2021/04/12 01:56:06;;;;;;;6.90;3.23;;;;;;;;;;6212614;23;20164;-90
2021/04/12 01:59:17;;;;;;;6.27;3.20;;;;;;;;;;6211920;23;20159;-89
2021/04/12 02:02:27;;;;;;;6.03;3.03;;;;;;;;;;6211894;23;20172;-91
2021/04/12 02:05:36;;;;;;;7.00;3.50;;;;;;;;;;6210791;23;20159;-90
2021/04/12 02:08:45;;;;;;;6.50;3.30;;;;;;;;;;6211350;23;20179;-92
2021/04/12 02:11:53;;;;;;;5.13;2.97;;;;;;;;;;6210590;23;20170;-90
2021/04/12 02:15:01;;;;;;;6.20;3.30;;;;;;;;;;6210941;23;20159;-92
2021/04/12 02:18:21;;;;;;;7.00;3.33;;;;;;;;;;6210144;23;20179;-91
2021/04/12 02:21:30;;;;;;;7.57;3.20;;;;;;;;;;6211403;23;20163;-89
2021/04/12 02:24:37;;;;;;;10.17;3.57;;;;;;;;;;6210448;23;20210;-91
2021/04/12 02:27:48;;;;;;;9.37;3.23;;;;;;;;;;6210034;23;20172;-91
2021/04/12 02:30:56;;;;;;;5.70;3.40;;;;;;;;;;6210286;23;20214;-88
2021/04/12 02:34:02;;;;;;;5.00;3.20;;;;;;;;;;6209903;23;20210;-90
2021/04/12 02:37:21;;;;;;;8.13;3.70;;;;;;;;;;6211061;23;20167;-90
2021/04/12 02:40:38;;;;;;;8.57;3.63;;;;;;;;;;6210052;23;20195;-89
2021/04/12 02:44:03;;;;;;;5.17;2.97;;;;;;;;;;6210782;23;20234;-90
2021/04/12 02:47:27;;;;;;;11.70;3.60;;;;;;;;;;6209948;23;20167;-88
2021/04/12 02:50:51;;;;;;;18.43;8.63;;;;;;;;;;6211818;23;20202;-91
2021/04/12 02:54:04;;;;;;;19.23;8.77;;;;;;;;;;6212004;23;20191;-90
2021/04/12 02:57:14;;;;;;;9.73;4.30;;;;;;;;;;6211751;23;20173;-91
2021/04/12 03:00:25;;;;;;;17.77;3.97;;;;;;;;;;6211308;23;20171;-88
2021/04/12 03:03:48;;;;;;;7.10;3.80;;;;;;;;;;6211736;23;20203;-90
2021/04/12 03:07:01;;;;;;;9.10;3.70;;;;;;;;;;6211722;22;20154;-91
2021/04/12 03:10:27;;;;;;;6.83;3.50;;;;;;;;;;6211231;23;20195;-91
2021/04/12 03:13:50;;;;;;;7.63;3.97;;;;;;;;;;6211892;23;20191;-89
2021/04/12 03:17:06;;;;;;;8.73;4.30;;;;;;;;;;6196169;23;20199;-90
2021/04/12 03:20:20;;;;;;;7.90;4.00;;;;;;;;;;6211262;23;20167;-89
2021/04/12 03:23:45;;;;;;;7.70;4.10;;;;;;;;;;6212257;23;20186;-89
2021/04/12 03:27:07;;;;;;;7.60;3.67;;;;;;;;;;6209940;23;20159;-90
2021/04/12 03:30:18;;;;;;;7.43;3.50;;;;;;;;;;6228806;22;20163;-92
2021/04/12 03:33:29;;;;;;;7.00;3.83;;;;;;;;;;6210958;23;20565;-88
2021/04/12 03:36:36;;;;;;;7.53;3.87;;;;;;;;;;6210930;23;20216;-90
2021/04/12 03:39:46;;;;;;;6.67;3.87;;;;;;;;;;6210892;23;20220;-90
2021/04/12 03:43:12;;;;;;;7.90;3.40;;;;;;;;;;6210416;23;20171;-90
2021/04/12 03:46:22;;;;;;;7.60;3.97;;;;;;;;;;6210065;23;20179;-87
2021/04/12 03:49:51;;;;;;;6.57;4.30;;;;;;;;;;6211281;23;20249;-88
2021/04/12 03:53:26;;;;;;;7.03;3.70;;;;;;;;;;6209647;23;20645;-88
2021/04/12 03:56:34;;;;;;;6.93;3.67;;;;;;;;;;6208808;23;20191;-89
2021/04/12 03:59:43;;;;;;;7.40;3.77;;;;;;;;;;6210303;23;20186;-90
2021/04/12 04:03:15;;;;;;;8.20;4.23;;;;;;;;;;6211004;23;20210;-88
2021/04/12 04:06:30;;;;;;;9.13;3.83;;;;;;;;;;6211148;23;20167;-88
2021/04/12 04:09:43;;;;;;;7.23;3.97;;;;;;;;;;6211386;23;20171;-89
2021/04/12 04:12:51;;;;;;;11.20;4.37;;;;;;;;;;6211075;23;20171;-90
2021/04/12 04:16:12;;;;;;;10.53;3.83;;;;;;;;;;6211116;23;20225;-90
2021/04/12 04:19:25;;;;;;;9.30;4.23;;;;;;;;;;6210686;23;20167;-89
2021/04/12 04:22:42;;;;;;;10.33;3.53;;;;;;;;;;6209283;23;20174;-87
2021/04/12 04:25:59;;;;;;;15.67;3.83;;;;;;;;;;6209973;23;20168;-90
2021/04/12 04:29:24;;;;;;;9.87;4.30;;;;;;;;;;6208886;23;20469;-88
2021/04/12 04:32:51;;;;;;;13.80;3.90;;;;;;;;;;6210414;22;20195;-89
2021/04/12 04:36:05;;;;;;;7.30;3.77;;;;;;;;;;6209036;23;20272;-90
2021/04/12 04:39:25;;;;;;;10.73;4.17;;;;;;;;;;6209614;23;20167;-90
2021/04/12 04:42:48;;;;;;;13.13;4.40;;;;;;;;;;6211422;23;20199;-88
2021/04/12 04:46:14;;;;;;;16.97;4.53;;;;;;;;;;6209970;22;20171;-89
2021/04/12 04:49:37;;;;;;;26.93;4.97;;;;;;;;;;6212653;23;20178;-89
2021/04/12 04:52:57;;;;;;;19.23;4.10;;;;;;;;;;6213832;23;20167;-88
2021/04/12 04:56:11;;;;;;;10.33;3.83;;;;;;;;;;6212218;23;20191;-90
2021/04/12 04:59:24;;;;;;;15.90;4.60;;;;;;;;;;6211728;23;20214;-91
2021/04/12 05:02:36;;;;;;;15.83;4.77;;;;;;;;;;6211608;23;20174;-89
2021/04/12 05:05:48;;;;;;;10.10;5.00;;;;;;;;;;6210058;23;20194;-89
2021/04/12 05:09:17;;;;;;;9.13;3.93;;;;;;;;;;6212736;22;20206;-90
2021/04/12 05:12:39;;;;;;;11.77;4.43;;;;;;;;;;6211780;23;20194;-88
2021/04/12 05:15:56;;;;;;;9.87;4.03;;;;;;;;;;6209936;23;20167;-89
2021/04/12 05:19:19;;;;;;;12.23;4.10;;;;;;;;;;6210749;22;20211;-89
2021/04/12 05:22:29;;;;;;;10.17;4.63;;;;;;;;;;6210544;23;20171;-90
2021/04/12 05:25:51;;;;;;;9.63;4.57;;;;;;;;;;6211363;23;20191;-89
2021/04/12 05:29:16;;;;;;;10.07;4.73;;;;;;;;;;6210115;23;20496;-90
2021/04/12 05:32:28;;;;;;;13.10;3.90;;;;;;;;;;6212000;23;20242;-88
2021/04/12 05:35:38;;;;;;;6.73;3.77;;;;;;;;;;6210343;23;20171;-89
2021/04/12 05:38:58;;;;;;;8.30;4.07;;;;;;;;;;6210456;23;20167;-89
2021/04/12 05:42:20;;;;;;;16.23;4.43;;;;;;;;;;6226998;23;20604;-88
2021/04/12 05:45:43;;;;;;;14.97;4.17;;;;;;;;;;6209802;22;20195;-90
2021/04/12 05:49:00;;;;;;;11.17;3.93;;;;;;;;;;6211618;23;20176;-91
2021/04/12 05:52:17;;;;;;;8.80;4.10;;;;;;;;;;6211211;23;20192;-89
2021/04/12 05:55:46;;;;;;;11.13;3.80;;;;;;;;;;6210120;22;20175;-90
2021/04/12 05:59:09;;;;;;;15.33;4.77;;;;;;;;;;6209782;22;20162;-90
2021/04/12 06:02:28;;;;;;;17.17;4.70;;;;;;;;;;6210670;23;20499;-89
2021/04/12 06:05:37;;;;;;;11.47;5.23;;;;;;;;;;6209438;23;20240;-88
2021/04/12 06:41:13;;;;;;;17.20;5.47;;;;;;;;;;6210316;22;20235;-88
2021/04/12 06:44:45;;;;;;;10.23;5.20;;;;;;;;;;6216490;23;20170;-88
2021/04/12 06:48:08;;;;;;;9.67;5.77;;;;;;;;;;6197874;23;20190;-88
2021/04/12 06:51:26;;;;;;;10.73;6.17;;;;;;;;;;6217043;23;20191;-88
2021/04/12 06:54:52;;;;;;;11.10;5.93;;;;;;;;;;6217931;23;20195;-89
2021/04/12 06:58:15;;;;;;;11.37;5.50;;;;;;;;;;6216751;22;20159;-88
2021/04/12 07:01:39;;;;;;;9.97;5.40;;;;;;;;;;6217708;23;20171;-88
2021/04/12 07:05:08;;;;;;;9.03;5.53;;;;;;;;;;6217208;23;20171;-89
2021/04/12 07:08:22;;;;;;;7.23;5.00;;;;;;;;;;6235525;23;20187;-89
2021/04/12 07:11:48;;;;;;;12.20;5.57;;;;;;;;;;6219216;22;20194;-87
2021/04/12 07:15:03;;;;;;;14.67;5.80;;;;;;;;;;6217410;23;20234;-90
2021/04/12 07:18:23;;;;;;;11.33;4.37;;;;;;;;;;6217136;23;20171;-89
2021/04/12 07:21:43;;;;;;;6.53;4.70;;;;;;;;;;6219433;23;20183;-88
2021/04/12 07:25:13;;;;;;;9.53;4.97;;;;;;;;;;6236595;23;20249;-89
2021/04/12 07:28:38;;;;;;;7.60;4.87;;;;;;;;;;6219229;23;20207;-89
2021/04/12 07:32:03;;;;;;;7.97;5.40;;;;;;;;;;6218195;22;20190;-88
2021/04/12 07:35:26;;;;;;;13.27;6.27;;;;;;;;;;6219367;23;20258;-86
2021/04/12 07:38:45;;;;;;;9.53;5.90;;;;;;;;;;6219809;23;20171;-88
2021/04/12 07:42:14;;;;;;;8.93;6.37;;;;;;;;;;6219794;23;20159;-89
2021/04/12 07:45:42;;;;;;;11.87;6.60;;;;;;;;;;6217521;23;20187;-87
2021/04/12 07:49:08;;;;;;;9.43;6.43;;;;;;;;;;6208333;23;20194;-88
2021/04/12 07:52:30;;;;;;;12.40;7.20;;;;;;;;;;6207065;23;20251;-88
2021/04/12 07:55:44;;;;;;;10.60;7.23;;;;;;;;;;6215211;23;20163;-89
2021/04/12 07:59:14;;;;;;;11.60;7.10;;;;;;;;;;6214986;23;20171;-89
2021/04/12 08:02:41;;;;;;;10.00;6.90;;;;;;;;;;6211992;23;20171;-88
2021/04/12 08:05:58;;;;;;;11.30;6.90;;;;;;;;;;6210771;23;20171;-90
2021/04/12 08:09:25;;;;;;;9.73;6.77;;;;;;;;;;6213488;23;20171;-88
2021/04/12 08:13:01;;;;;;;10.27;6.80;;;;;;;;;;6211322;23;20224;-89
2021/04/12 08:16:19;;;;;;;9.43;5.83;;;;;;;;;;6214413;22;20171;-88
2021/04/12 08:19:41;;;;;;;8.17;5.20;;;;;;;;;;6214280;23;20166;-87
2021/04/12 08:23:03;;;;;;;8.13;5.80;;;;;;;;;;6213599;23;20199;-88
2021/04/12 08:26:27;;;;;;;10.87;5.57;;;;;;;;;;6216279;23;20246;-89
2021/04/12 08:29:50;;;;;;;8.77;5.70;;;;;;;;;;6214165;23;20211;-87
2021/04/12 08:33:29;;;;;;;10.57;4.83;;;;;;;;;;6229439;23;20218;-88
2021/04/12 08:37:04;;;;;;;12.07;4.60;;;;;;;;;;6213378;22;20175;-89
2021/04/12 08:40:23;;;;;;;7.50;4.10;;;;;;;;;;6212923;23;20866;-88
2021/04/12 08:43:43;;;;;;;6.80;3.70;;;;;;;;;;6213770;23;20195;-90
2021/04/12 08:47:04;;;;;;;6.50;3.73;;;;;;;;;;6215167;23;20171;-90
2021/04/12 08:50:36;;;;;;;6.63;3.40;;;;;;;;;;6214624;23;20195;-88
2021/04/12 08:53:59;;;;;;;4.73;2.90;;;;;;;;;;6215621;23;20171;-88
2021/04/12 08:57:14;;;;;;;4.67;3.40;;;;;;;;;;6215469;23;20155;-90
2021/04/12 09:00:38;;;;;;;5.17;2.97;;;;;;;;;;6216815;22;20172;-88
2021/04/12 09:04:02;;;;;;;6.70;2.80;;;;;;;;;;6213820;23;20535;-90
2021/04/12 09:22:05;;;;;;;2.83;2.33;;;;;;;;;;6156266;22;20247;-88
2021/04/12 09:25:26;;;;;;;4.03;2.50;;;;;;;;;;6228044;23;20191;-89
2021/04/12 09:28:50;;;;;;;4.90;2.33;;;;;;;;;;6209805;23;20168;-91
2021/04/12 09:32:13;;;;;;;4.30;2.27;;;;;;;;;;6211038;23;20226;-89
2021/04/12 11:35:44;;;;;;;5.80;3.73;;;;;;;;;;6204176;22;20211;-87
2021/04/12 11:38:53;;;;;;;7.40;3.63;;;;;;;;;;6208616;23;20226;-89
2021/04/12 11:41:59;;;;;;;4.63;3.30;;;;;;;;;;6209242;23;20195;-87
2021/04/12 11:45:09;;;;;;;4.33;3.40;;;;;;;;;;6211207;23;20249;-89
2021/04/12 11:48:15;;;;;;;7.67;3.93;;;;;;;;;;6208787;23;20174;-87
2021/04/12 11:51:25;;;;;;;4.47;3.47;;;;;;;;;;6211992;23;20195;-89
2021/04/12 11:54:43;;;;;;;5.67;4.33;;;;;;;;;;6210060;23;20191;-88
2021/04/12 11:57:52;;;;;;;7.53;4.83;;;;;;;;;;6210080;23;20167;-89
2021/04/12 12:01:11;;;;;;;7.53;4.37;;;;;;;;;;6211671;23;20222;-88
2021/04/12 12:04:19;;;;;;;4.57;3.47;;;;;;;;;;6212995;23;20198;-87
2021/04/12 12:07:33;;;;;;;6.27;4.13;;;;;;;;;;6211372;23;20195;-89
2021/04/12 12:10:42;;;;;;;5.53;3.97;;;;;;;;;;6212875;23;20203;-88
2021/04/12 12:14:01;;;;;;;9.10;4.37;;;;;;;;;;6212382;22;20171;-88
2021/04/12 12:17:18;;;;;;;4.90;3.97;;;;;;;;;;6215273;22;20155;-88
2021/04/12 12:20:25;;;;;;;4.80;3.53;;;;;;;;;;6214653;22;20164;-87
2021/04/12 12:23:40;;;;;;;4.53;3.00;;;;;;;;;;6214158;23;20215;-87
2021/04/12 12:26:46;;;;;;;4.87;3.57;;;;;;;;;;6209548;23;20187;-87
2021/04/12 12:30:19;;;;;;;4.70;3.17;;;;;;;;;;6207925;23;20170;-86
2021/04/12 12:33:31;;;;;;;3.60;2.90;;;;;;;;;;6210056;23;20171;-87
2021/04/12 16:55:23;;;;;;;4.97;2.50;;;;;;;;;;6170193;23;20256;-87
2021/04/12 16:58:31;;;;;;;7.03;3.10;;;;;;;;;;6152550;23;20200;-89
2021/04/12 17:01:40;;;;;;;4.70;2.87;;;;;;;;;;6153664;23;20208;-90
2021/04/12 17:04:48;;;;;;;7.33;3.10;;;;;;;;;;6150171;23;20252;-85
2021/04/12 17:07:57;;;;;;;5.37;2.70;;;;;;;;;;6152114;23;20694;-90
2021/04/12 17:11:06;;;;;;;5.27;3.33;;;;;;;;;;6152537;23;20197;-87
2021/04/12 17:14:15;;;;;;;4.10;2.70;;;;;;;;;;6149583;23;20181;-87
2021/04/12 17:17:23;;;;;;;5.40;3.23;;;;;;;;;;6149236;23;20173;-84
2021/04/12 17:20:31;;;;;;;4.90;2.97;;;;;;;;;;6148463;23;20176;-89
2021/04/12 17:23:43;;;;;;;5.43;2.77;;;;;;;;;;6154460;23;20195;-86
2021/04/12 17:26:52;;;;;;;4.60;2.90;;;;;;;;;;6151174;23;20177;-87
2021/04/12 17:29:59;;;;;;;5.63;2.80;;;;;;;;;;6151522;23;20175;-89
2021/04/12 17:33:06;;;;;;;4.80;2.47;;;;;;;;;;6151734;23;20231;-87
2021/04/12 17:36:12;;;;;;;6.23;3.30;;;;;;;;;;6151277;23;20240;-90
2021/04/12 17:39:22;;;;;;;5.83;3.47;;;;;;;;;;6149632;23;20185;-88
2021/04/12 17:42:28;;;;;;;4.23;2.80;;;;;;;;;;6149257;23;20173;-87
2021/04/12 17:45:34;;;;;;;5.03;3.03;;;;;;;;;;6147977;23;20660;-88
2021/04/12 17:48:42;;;;;;;6.47;3.23;;;;;;;;;;6147998;23;20168;-88
2021/04/12 17:51:49;;;;;;;4.87;3.20;;;;;;;;;;6147753;23;20244;-90
2021/04/12 17:55:04;;;;;;;5.73;3.50;;;;;;;;;;6118961;23;20173;-89
2021/04/12 17:58:13;;;;;;;7.23;3.33;;;;;;;;;;6118971;23;20170;-89
2021/04/12 18:01:46;;;;;;;3.63;2.43;;;;;;;;;;6119448;23;20172;-92
2021/04/12 18:04:52;;;;;;;4.80;2.70;;;;;;;;;;6123889;23;20201;-87
2021/04/12 18:08:04;;;;;;;6.17;2.80;;;;;;;;;;6122515;23;20250;-89
2021/04/12 18:11:12;;;;;;;6.23;3.00;;;;;;;;;;6123528;23;20198;-90
2021/04/12 18:14:34;;;;;;;4.43;2.80;;;;;;;;;;6124873;23;20169;-90
2021/04/12 18:17:43;;;;;;;6.07;3.80;;;;;;;;;;6124297;23;20149;-87
2021/04/12 18:20:50;;;;;;;8.13;4.13;;;;;;;;;;6125064;23;20212;-88
2021/04/12 18:24:04;;;;;;;9.27;4.67;;;;;;;;;;6127255;23;20197;-87
2021/04/12 18:27:13;;;;;;;7.10;4.07;;;;;;;;;;6124444;23;20168;-90
2021/04/12 18:30:20;;;;;;;4.63;3.10;;;;;;;;;;6123625;23;20165;-88
2021/04/12 18:33:33;;;;;;;4.23;3.13;;;;;;;;;;6123817;23;20174;-88
2021/04/12 18:36:42;;;;;;;4.90;3.30;;;;;;;;;;6123321;23;20209;-88
2021/04/12 18:39:50;;;;;;;8.17;3.77;;;;;;;;;;6123876;23;20173;-90
2021/04/12 18:42:55;;;;;;;4.50;2.73;;;;;;;;;;6123100;23;20222;-88
2021/04/12 18:46:06;;;;;;;8.53;3.63;;;;;;;;;;6123116;23;20177;-91
2021/04/12 18:49:17;;;;;;;7.23;3.80;;;;;;;;;;6122873;23;20190;-86
2021/04/12 18:52:24;;;;;;;6.13;3.60;;;;;;;;;;6124278;23;20169;-88
2021/04/12 18:55:30;;;;;;;6.87;3.53;;;;;;;;;;6152129;23;20269;-88
2021/04/12 18:58:42;;;;;;;5.73;3.70;;;;;;;;;;6151969;23;20195;-90
2021/04/12 19:01:52;;;;;;;6.40;3.90;;;;;;;;;;6151613;23;20304;-86
2021/04/12 19:05:02;;;;;;;5.63;3.80;;;;;;;;;;6152311;23;20245;-86
2021/04/12 19:08:09;;;;;;;6.03;3.90;;;;;;;;;;6153196;23;20192;-88
2021/04/12 19:11:22;;;;;;;5.73;3.83;;;;;;;;;;6153337;23;20176;-89
2021/04/12 19:14:34;;;;;;;6.23;3.80;;;;;;;;;;6156021;23;20188;-89
2021/04/12 19:17:46;;;;;;;5.80;3.73;;;;;;;;;;6157286;23;20172;-87
2021/04/12 19:21:00;;;;;;;7.63;4.03;;;;;;;;;;6156106;23;20196;-88
2021/04/12 19:24:16;;;;;;;6.03;4.10;;;;;;;;;;6154403;23;20216;-88
2021/04/12 19:27:29;;;;;;;5.90;4.07;;;;;;;;;;6154118;23;20269;-89
2021/04/12 19:30:38;;;;;;;6.50;4.60;;;;;;;;;;6154471;23;20184;-88
2021/04/12 19:33:50;;;;;;;6.97;4.17;;;;;;;;;;6154168;23;20248;-90
2021/04/12 19:37:01;;;;;;;8.27;4.17;;;;;;;;;;6154552;23;20177;-91
2021/04/12 19:40:08;;;;;;;6.77;4.23;;;;;;;;;;6153693;23;20558;-88
2021/04/12 19:43:14;;;;;;;8.27;4.60;;;;;;;;;;6153771;23;20175;-88
2021/04/12 19:46:19;;;;;;;7.17;4.03;;;;;;;;;;6153294;23;20177;-89
2021/04/12 19:49:27;;;;;;;6.93;4.37;;;;;;;;;;6152004;23;20168;-88
2021/04/12 19:52:38;;;;;;;6.00;4.10;;;;;;;;;;6151875;23;20173;-89
2021/04/12 19:55:45;;;;;;;9.27;5.57;;;;;;;;;;6151475;23;20568;-89
2021/04/12 19:58:51;;;;;;;7.70;5.20;;;;;;;;;;6152351;23;20176;-89
2021/04/12 20:01:59;;;;;;;9.50;5.40;;;;;;;;;;6152471;23;20172;-89
2021/04/12 20:05:09;;;;;;;8.70;5.50;;;;;;;;;;6151478;23;20297;-90
2021/04/12 20:08:17;;;;;;;8.27;4.83;;;;;;;;;;6151711;23;20172;-87
2021/04/12 20:11:31;;;;;;;8.60;5.40;;;;;;;;;;6150777;23;20196;-90
2021/04/12 20:14:40;;;;;;;7.33;4.77;;;;;;;;;;6149864;23;20220;-88
2021/04/12 20:17:53;;;;;;;7.07;4.87;;;;;;;;;;6150451;23;20172;-89
2021/04/12 20:21:03;;;;;;;6.90;4.67;;;;;;;;;;6149327;23;20176;-90
2021/04/12 20:24:18;;;;;;;7.43;4.73;;;;;;;;;;6149523;23;20192;-88
2021/04/12 20:27:30;;;;;;;7.70;4.83;;;;;;;;;;6150627;23;20264;-90
2021/04/12 20:30:50;;;;;;;10.00;4.83;;;;;;;;;;6150498;23;20172;-89
2021/04/12 20:34:02;;;;;;;7.97;5.13;;;;;;;;;;6150179;23;20172;-89
2021/04/12 20:37:24;;;;;;;7.10;4.90;;;;;;;;;;6151519;23;20219;-88
2021/04/12 20:40:33;;;;;;;9.03;5.53;;;;;;;;;;6151650;23;20409;-91
2021/04/12 20:43:55;;;;;;;8.13;5.30;;;;;;;;;;6153218;23;20156;-88
2021/04/12 20:47:06;;;;;;;8.40;5.37;;;;;;;;;;6152764;23;20157;-89
2021/04/12 20:50:16;;;;;;;9.33;5.90;;;;;;;;;;6150761;23;20212;-88
2021/04/12 20:53:23;;;;;;;11.40;5.73;;;;;;;;;;6153012;23;20189;-88
2021/04/12 20:56:30;;;;;;;9.03;5.20;;;;;;;;;;6171873;23;20160;-91
2021/04/12 20:59:38;;;;;;;10.33;5.90;;;;;;;;;;6166928;23;20213;-88
2021/04/12 21:02:44;;;;;;;9.47;5.57;;;;;;;;;;6170220;23;20176;-88
2021/04/12 21:05:50;;;;;;;9.13;5.73;;;;;;;;;;6170628;23;20544;-89
2021/04/12 21:09:02;;;;;;;8.00;5.27;;;;;;;;;;6168546;23;20155;-89
2021/04/12 21:12:13;;;;;;;9.30;5.63;;;;;;;;;;6168007;23;20152;-89
2021/04/12 21:15:27;;;;;;;12.40;5.63;;;;;;;;;;6168540;23;20208;-90
2021/04/12 21:18:35;;;;;;;12.20;6.20;;;;;;;;;;6169302;23;20164;-88
2021/04/12 21:21:41;;;;;;;8.90;5.93;;;;;;;;;;6167515;23;20196;-89
2021/04/12 21:24:46;;;;;;;8.30;5.77;;;;;;;;;;6167427;23;20199;-89
2021/04/12 21:28:02;;;;;;;10.17;5.87;;;;;;;;;;6168370;23;20176;-90
2021/04/12 21:31:13;;;;;;;10.70;5.80;;;;;;;;;;6166757;23;20177;-87
2021/04/12 21:34:21;;;;;;;8.73;6.20;;;;;;;;;;6167384;23;20176;-87
2021/04/12 21:37:27;;;;;;;10.37;6.13;;;;;;;;;;6168268;23;20171;-88
2021/04/12 21:40:35;;;;;;;10.37;6.27;;;;;;;;;;6167904;23;20508;-87
2021/04/12 21:43:44;;;;;;;11.90;6.60;;;;;;;;;;6167735;23;20209;-89
2021/04/12 21:46:53;;;;;;;11.40;6.57;;;;;;;;;;6166132;23;20220;-87
2021/04/12 21:50:00;;;;;;;12.93;6.00;;;;;;;;;;6168060;23;20160;-88
2021/04/12 21:53:35;;;;;;;11.20;6.57;;;;;;;;;;6171228;23;20691;-88
2021/04/12 21:56:42;;;;;;;11.60;6.37;;;;;;;;;;6066415;23;20232;-89
2021/04/12 21:59:50;;;;;;;12.23;6.67;;;;;;;;;;6152789;23;20486;-90
2021/04/12 22:03:02;;;;;;;13.20;7.03;;;;;;;;;;6152904;23;20248;-91
2021/04/12 22:06:13;;;;;;;12.17;6.13;;;;;;;;;;6151380;23;20264;-88
2021/04/12 22:09:21;;;;;;;10.83;6.47;;;;;;;;;;6153278;23;20177;-89
2021/04/12 22:12:28;;;;;;;8.47;5.90;;;;;;;;;;6153548;23;20240;-87
2021/04/12 22:15:37;;;;;;;12.00;6.37;;;;;;;;;;6152341;23;20200;-89
2021/04/12 22:18:45;;;;;;;10.77;6.10;;;;;;;;;;6152529;23;20157;-89
2021/04/12 22:21:55;;;;;;;8.83;5.77;;;;;;;;;;6151177;23;20175;-90
2021/04/12 22:25:06;;;;;;;14.40;6.73;;;;;;;;;;6153702;23;20647;-89
2021/04/12 22:28:18;;;;;;;14.30;6.47;;;;;;;;;;6154228;23;20608;-90
2021/04/12 22:31:40;;;;;;;12.63;6.80;;;;;;;;;;6152342;23;20169;-89
2021/04/12 22:35:00;;;;;;;18.53;8.80;;;;;;;;;;6150739;23;20169;-88
2021/04/12 22:41:34;;;;;;;13.43;7.20;;;;;;;;;;6152026;23;20160;-88
2021/04/12 22:44:44;;;;;;;11.53;6.87;;;;;;;;;;6152052;23;20196;-86
2021/04/12 22:48:00;;;;;;;12.50;7.23;;;;;;;;;;6150821;23;20188;-88
2021/04/12 22:51:06;;;;;;;12.10;7.33;;;;;;;;;;6151334;23;20216;-88
2021/04/12 22:54:14;;;;;;;13.43;6.97;;;;;;;;;;6163298;23;20188;-87
2021/04/12 22:57:43;;;;;;;15.37;7.07;;;;;;;;;;6169428;23;20216;-89
2021/04/12 23:00:52;;;;;;;11.57;7.50;;;;;;;;;;6167883;23;20224;-89
2021/04/12 23:03:57;;;;;;;12.27;7.20;;;;;;;;;;6168403;23;20172;-91
2021/04/12 23:07:02;;;;;;;16.93;7.67;;;;;;;;;;6169127;23;20164;-90
2021/04/12 23:10:08;;;;;;;14.27;7.77;;;;;;;;;;6168159;23;20169;-87
2021/04/12 23:13:20;;;;;;;12.73;7.60;;;;;;;;;;6168937;23;20224;-88
2021/04/12 23:16:35;;;;;;;16.00;8.23;;;;;;;;;;6166991;23;20157;-89
2021/04/12 23:19:53;;;;;;;14.47;8.03;;;;;;;;;;6168480;23;20200;-87
2021/04/12 23:23:00;;;;;;;14.83;8.47;;;;;;;;;;6167489;23;20168;-89
2021/04/12 23:26:06;;;;;;;16.53;8.60;;;;;;;;;;6168287;23;20200;-90
2021/04/12 23:29:13;;;;;;;18.00;8.80;;;;;;;;;;6168042;23;20172;-88
2021/04/12 23:32:20;;;;;;;16.90;9.37;;;;;;;;;;6169516;23;20176;-91
2021/04/12 23:35:26;;;;;;;16.80;9.07;;;;;;;;;;6168917;23;20244;-88
2021/04/12 23:38:40;;;;;;;15.60;8.80;;;;;;;;;;6168923;23;20168;-86
2021/04/12 23:41:44;;;;;;;15.33;9.87;;;;;;;;;;6169679;23;20205;-90
2021/04/12 23:44:51;;;;;;;18.27;9.80;;;;;;;;;;6168219;23;20196;-87
2021/04/12 23:47:58;;;;;;;15.70;9.40;;;;;;;;;;6168267;23;20202;-91
2021/04/12 23:51:20;;;;;;;18.27;9.57;;;;;;;;;;6168164;23;20222;-90
2021/04/12 23:54:39;;;;;;;17.43;10.03;;;;;;;;;;6167307;23;20228;-90
2021/04/12 23:57:44;;;;;;;15.50;9.33;;;;;;;;;;6165900;23;20248;-89
